Terminal Aerodrome Forecast
Issued by NWS Sioux Falls, SD

Home | Current Version | Previous Version | Graphics & Text | Print | Product List | Glossary On
Versions: 1 2 3 4 5 6 7 8 9 10 11 12
697
FTUS43 KFSD 270520
TAFHON
TAF
KHON 270520Z 2706/2806 00000KT P6SM BKN100
      TEMPO 2710/2714 5SM BR
     FM271700 VRB03KT P6SM SCT100=

USA.gov is the U.S. government's official web portal to all federal, state and local government web resources and services.